Time;durP1;ratioP1;P1;durP2;ratioP2;P2;SDS_P1;SDS_P2;PMS_P1;PMS_P2;Temp;Humidity;BMP_temperature;BMP_pressure;BME280_temperature;BME280_humidity;BME280_pressure;Samples;Min_cycle;Max_cycle;Signal;HPM_P1;HPM_P2
2022/04/11 00:01:39;;;;;;;;;;;10.70;95.10;;;;;;5072335;28;19920;-70
2022/04/11 00:04:04;;;;;;;;;;;10.70;95.00;;;;;;5071967;28;19909;-69
2022/04/11 00:06:30;;;;;;;;;;;10.70;95.00;;;;;;5071751;28;19980;-70
2022/04/11 00:08:56;;;;;;;;;;;10.70;94.70;;;;;;5071180;28;20382;-70
2022/04/11 00:11:22;;;;;;;;;;;10.60;94.80;;;;;;5071933;28;19912;-69
2022/04/11 00:13:48;;;;;;;;;;;10.40;95.20;;;;;;5071860;28;19956;-69
2022/04/11 00:16:13;;;;;;;;;;;10.20;95.30;;;;;;5072052;28;20439;-68
2022/04/11 00:18:40;;;;;;;;;;;10.10;95.50;;;;;;5053651;28;19999;-70
2022/04/11 00:21:06;;;;;;;;;;;10.00;95.80;;;;;;5071322;28;20347;-70
2022/04/11 00:23:32;;;;;;;;;;;10.00;95.80;;;;;;5071876;28;19940;-70
2022/04/11 00:25:58;;;;;;;;;;;10.00;95.90;;;;;;5071793;28;19948;-69
2022/04/11 00:28:23;;;;;;;;;;;10.10;95.70;;;;;;5072066;28;20372;-69
2022/04/11 00:30:49;;;;;;;;;;;10.10;95.70;;;;;;5071451;28;20356;-70
2022/04/11 00:33:15;;;;;;;;;;;10.10;95.70;;;;;;5071505;28;19909;-69
2022/04/11 00:35:41;;;;;;;;;;;10.20;95.70;;;;;;5071484;28;20228;-69
2022/04/11 00:38:06;;;;;;;;;;;10.20;95.70;;;;;;5071421;28;20494;-70
2022/04/11 00:40:32;;;;;;;;;;;10.30;95.30;;;;;;5071975;28;19908;-70
2022/04/11 00:42:58;;;;;;;;;;;10.20;95.30;;;;;;5071445;28;20090;-69
2022/04/11 00:45:24;;;;;;;;;;;10.20;95.60;;;;;;5071302;28;19914;-70
2022/04/11 00:47:50;;;;;;;;;;;10.20;95.60;;;;;;5071410;28;20008;-69
2022/04/11 00:50:16;;;;;;;;;;;10.20;95.60;;;;;;5071676;28;19908;-70
2022/04/11 00:52:53;;;;;;;;;;;10.30;95.40;;;;;;5071245;28;19908;-69
2022/04/11 00:55:23;;;;;;;;;;;10.20;95.40;;;;;;5071640;28;19909;-70
2022/04/11 00:57:49;;;;;;;;;;;10.30;95.40;;;;;;5071391;28;19928;-70
2022/04/11 01:00:15;;;;;;;;;;;10.20;95.50;;;;;;5071210;28;19928;-69
2022/04/11 01:02:41;;;;;;;;;;;10.00;95.90;;;;;;5071318;28;20388;-69
2022/04/11 01:05:08;;;;;;;;;;;10.10;96.00;;;;;;5071297;28;19908;-70
2022/04/11 01:07:35;;;;;;;;;;;10.00;96.30;;;;;;5071051;28;19920;-69
2022/04/11 01:10:02;;;;;;;;;;;10.10;96.40;;;;;;5052984;28;19920;-70
2022/04/11 01:12:28;;;;;;;;;;;10.10;96.10;;;;;;5071611;28;19908;-69
2022/04/11 01:14:53;;;;;;;;;;;10.20;96.00;;;;;;5071041;28;20394;-69
2022/04/11 01:17:19;;;;;;;;;;;10.20;96.10;;;;;;5070919;28;20003;-70
2022/04/11 01:19:45;;;;;;;;;;;10.20;95.90;;;;;;5072012;28;19909;-70
2022/04/11 01:22:11;;;;;;;;;;;10.20;96.00;;;;;;5075183;28;19923;-70
2022/04/11 01:24:38;;;;;;;;;;;10.20;96.20;;;;;;5074598;28;19908;-69
2022/04/11 01:27:03;;;;;;;;;;;10.10;96.20;;;;;;5074875;28;19959;-69
2022/04/11 01:29:29;;;;;;;;;;;10.20;96.10;;;;;;5074627;28;19916;-69
2022/04/11 01:31:55;;;;;;;;;;;10.20;96.40;;;;;;5075020;28;19909;-70
2022/04/11 01:34:21;;;;;;;;;;;10.20;96.30;;;;;;5074585;28;19908;-70
2022/04/11 01:36:47;;;;;;;;;;;10.20;96.10;;;;;;5074310;28;19908;-70
2022/04/11 01:39:13;;;;;;;;;;;10.20;96.10;;;;;;5074318;28;19912;-69
2022/04/11 01:41:39;;;;;;;;;;;10.20;96.20;;;;;;5074136;28;19935;-69
2022/04/11 01:44:05;;;;;;;;;;;10.10;96.40;;;;;;5074765;28;20336;-70
2022/04/11 01:46:31;;;;;;;;;;;10.00;96.90;;;;;;5074538;28;19908;-69
2022/04/11 01:48:56;;;;;;;;;;;10.00;96.40;;;;;;5074558;28;20268;-70
2022/04/11 01:51:22;;;;;;;;;;;9.90;96.80;;;;;;5074537;28;19955;-70
2022/04/11 01:53:48;;;;;;;;;;;10.00;96.80;;;;;;5074545;28;20045;-69
2022/04/11 01:56:14;;;;;;;;;;;9.90;96.80;;;;;;5074163;28;20003;-69
2022/04/11 01:58:39;;;;;;;;;;;9.90;97.10;;;;;;5074330;28;19916;-69
2022/04/11 02:01:05;;;;;;;;;;;9.80;97.00;;;;;;5055966;28;20042;-70
2022/04/11 02:03:31;;;;;;;;;;;9.80;97.20;;;;;;5055925;28;19909;-70
2022/04/11 02:05:57;;;;;;;;;;;9.60;97.50;;;;;;5055943;28;20050;-70
2022/04/11 02:08:23;;;;;;;;;;;9.50;97.80;;;;;;5074212;28;19923;-70
2022/04/11 02:10:48;;;;;;;;;;;9.40;98.00;;;;;;5073872;28;20007;-69
2022/04/11 02:13:14;;;;;;;;;;;9.30;98.50;;;;;;5073895;28;19908;-70
2022/04/11 02:15:40;;;;;;;;;;;9.30;98.60;;;;;;5074080;28;20253;-69
2022/04/11 02:18:06;;;;;;;;;;;9.40;99.00;;;;;;5073907;28;19909;-70
2022/04/11 02:20:32;;;;;;;;;;;9.50;98.40;;;;;;5073440;28;19920;-70
2022/04/11 02:22:59;;;;;;;;;;;9.50;98.70;;;;;;5072975;28;20027;-70
2022/04/11 02:25:28;;;;;;;;;;;9.40;98.50;;;;;;5073421;28;19908;-69
2022/04/11 02:27:54;;;;;;;;;;;9.30;98.90;;;;;;5073090;28;19958;-69
2022/04/11 02:30:22;;;;;;;;;;;9.30;98.90;;;;;;5054534;28;19960;-69
2022/04/11 02:32:48;;;;;;;;;;;9.30;99.00;;;;;;5055313;28;19909;-69
2022/04/11 02:35:14;;;;;;;;;;;9.10;99.50;;;;;;5073934;28;19920;-69
2022/04/11 02:37:40;;;;;;;;;;;9.20;99.80;;;;;;5073476;28;19954;-69
2022/04/11 02:40:07;;;;;;;;;;;9.20;99.80;;;;;;5073586;28;19969;-69
2022/04/11 02:42:33;;;;;;;;;;;9.30;99.60;;;;;;5073072;28;19950;-69
2022/04/11 02:44:59;;;;;;;;;;;9.30;99.60;;;;;;5073656;28;19928;-70
2022/04/11 02:47:25;;;;;;;;;;;9.30;99.60;;;;;;5073404;28;19908;-69
2022/04/11 02:49:51;;;;;;;;;;;9.30;99.70;;;;;;5073297;28;19930;-70
2022/04/11 02:52:18;;;;;;;;;;;9.40;99.60;;;;;;5072838;28;19908;-69
2022/04/11 02:54:44;;;;;;;;;;;9.50;99.50;;;;;;5073602;28;19913;-69
2022/04/11 02:57:09;;;;;;;;;;;9.50;99.60;;;;;;5073671;28;19916;-70
2022/04/11 02:59:35;;;;;;;;;;;9.50;99.50;;;;;;5073702;28;20259;-68
2022/04/11 03:02:02;;;;;;;;;;;9.50;99.40;;;;;;5073162;28;19921;-69
2022/04/11 03:04:28;;;;;;;;;;;9.50;99.60;;;;;;5073217;28;20338;-69
2022/04/11 03:06:54;;;;;;;;;;;9.50;99.60;;;;;;5073311;28;20016;-69
2022/04/11 03:09:20;;;;;;;;;;;9.60;99.60;;;;;;5073862;28;19998;-70
2022/04/11 03:11:46;;;;;;;;;;;9.50;99.70;;;;;;5073419;28;19909;-69
2022/04/11 03:14:12;;;;;;;;;;;9.50;99.90;;;;;;5073631;28;20031;-70
2022/04/11 03:16:38;;;;;;;;;;;9.50;99.90;;;;;;5073319;28;20435;-69
2022/04/11 03:19:03;;;;;;;;;;;9.50;99.90;;;;;;5073241;28;19993;-68
2022/04/11 03:21:29;;;;;;;;;;;9.50;99.90;;;;;;5073769;28;20023;-70
2022/04/11 03:23:55;;;;;;;;;;;9.60;99.90;;;;;;5073913;28;19924;-68
2022/04/11 03:26:21;;;;;;;;;;;9.60;99.90;;;;;;5073991;28;20014;-69
2022/04/11 03:28:47;;;;;;;;;;;9.60;99.90;;;;;;5074139;28;19909;-69
2022/04/11 03:31:12;;;;;;;;;;;9.60;99.90;;;;;;5073902;28;19915;-70
2022/04/11 03:33:38;;;;;;;;;;;9.70;99.90;;;;;;5073977;28;20006;-69
2022/04/11 03:36:05;;;;;;;;;;;9.60;99.90;;;;;;5073111;28;19961;-69
2022/04/11 03:38:31;;;;;;;;;;;9.60;99.90;;;;;;5073555;28;19909;-70
2022/04/11 03:40:57;;;;;;;;;;;9.60;99.90;;;;;;5073146;28;19963;-69
2022/04/11 03:43:22;;;;;;;;;;;9.60;99.90;;;;;;5072432;28;20316;-69
2022/04/11 03:45:48;;;;;;;;;;;9.30;99.90;;;;;;5073608;28;19954;-69
2022/04/11 03:48:14;;;;;;;;;;;9.20;99.90;;;;;;5073230;28;20019;-69
2022/04/11 03:50:40;;;;;;;;;;;9.10;99.90;;;;;;5073208;28;19908;-69
2022/04/11 03:53:06;;;;;;;;;;;8.90;99.90;;;;;;5073067;28;20383;-69
2022/04/11 03:55:32;;;;;;;;;;;8.80;99.90;;;;;;5073593;28;19996;-69
2022/04/11 03:57:58;;;;;;;;;;;8.70;99.90;;;;;;5073266;28;19924;-69
2022/04/11 04:00:23;;;;;;;;;;;8.70;99.90;;;;;;5073073;28;19913;-68
2022/04/11 04:02:49;;;;;;;;;;;8.70;99.90;;;;;;5072871;28;19923;-69
2022/04/11 04:05:15;;;;;;;;;;;8.80;99.90;;;;;;5073358;28;20363;-70
2022/04/11 04:07:41;;;;;;;;;;;8.90;99.90;;;;;;5054692;28;20280;-69
2022/04/11 04:10:08;;;;;;;;;;;9.00;99.90;;;;;;5073478;28;20012;-69
2022/04/11 04:12:34;;;;;;;;;;;9.00;99.90;;;;;;5072582;28;19923;-68
2022/04/11 04:15:00;;;;;;;;;;;8.90;99.90;;;;;;5072601;28;20245;-70
2022/04/11 04:17:26;;;;;;;;;;;8.90;99.90;;;;;;5073096;28;19959;-69
2022/04/11 04:19:52;;;;;;;;;;;8.90;99.90;;;;;;5072911;28;20333;-69
2022/04/11 04:22:18;;;;;;;;;;;8.90;99.90;;;;;;5073631;28;20007;-69
2022/04/11 04:24:43;;;;;;;;;;;9.00;99.90;;;;;;5073057;28;19912;-69
2022/04/11 04:27:09;;;;;;;;;;;9.00;99.90;;;;;;5073246;28;19930;-69
2022/04/11 04:29:35;;;;;;;;;;;9.10;99.90;;;;;;5073265;28;19938;-70
2022/04/11 04:32:01;;;;;;;;;;;9.10;99.90;;;;;;5073374;28;19916;-70
2022/04/11 04:34:31;;;;;;;;;;;9.10;99.90;;;;;;5073337;28;20248;-70
2022/04/11 04:36:58;;;;;;;;;;;9.10;99.90;;;;;;5054893;28;19908;-69
2022/04/11 04:39:24;;;;;;;;;;;9.20;99.90;;;;;;5072987;28;19919;-69
2022/04/11 04:41:50;;;;;;;;;;;9.20;99.90;;;;;;5073289;28;20011;-70
2022/04/11 04:44:16;;;;;;;;;;;9.30;99.90;;;;;;5073128;28;19951;-70
2022/04/11 04:46:42;;;;;;;;;;;9.40;99.90;;;;;;5073386;28;19912;-69
2022/04/11 04:49:08;;;;;;;;;;;9.40;99.90;;;;;;5072962;28;19916;-69
2022/04/11 04:51:33;;;;;;;;;;;9.40;99.90;;;;;;5073449;28;19912;-70
2022/04/11 04:54:00;;;;;;;;;;;9.50;99.90;;;;;;5073968;28;19909;-70
2022/04/11 04:56:26;;;;;;;;;;;9.50;99.90;;;;;;5076306;28;19995;-70
2022/04/11 04:58:51;;;;;;;;;;;9.60;99.90;;;;;;5057799;28;19940;-70
2022/04/11 05:01:17;;;;;;;;;;;9.60;99.90;;;;;;5077104;28;19916;-69
2022/04/11 05:03:43;;;;;;;;;;;9.60;99.90;;;;;;5076780;28;19909;-69
2022/04/11 05:06:09;;;;;;;;;;;9.60;99.90;;;;;;5077535;28;19919;-70
2022/04/11 05:08:35;;;;;;;;;;;9.70;99.90;;;;;;5077198;28;19909;-70
2022/04/11 05:11:01;;;;;;;;;;;9.70;99.90;;;;;;5076472;28;19955;-70
2022/04/11 05:13:27;;;;;;;;;;;9.70;99.90;;;;;;5076944;28;19909;-70
2022/04/11 05:15:53;;;;;;;;;;;9.80;99.90;;;;;;5076359;28;19912;-70
2022/04/11 05:18:19;;;;;;;;;;;9.80;99.90;;;;;;5076684;28;20391;-70
2022/04/11 05:20:44;;;;;;;;;;;9.80;99.90;;;;;;5076755;28;19920;-70
2022/04/11 05:23:10;;;;;;;;;;;10.00;99.90;;;;;;5076438;28;20064;-70
2022/04/11 05:25:36;;;;;;;;;;;10.90;99.90;;;;;;5076773;28;20465;-70
2022/04/11 05:28:02;;;;;;;;;;;12.00;98.40;;;;;;5076367;28;19915;-69
2022/04/11 05:30:33;;;;;;;;;;;13.30;96.30;;;;;;5075714;28;19908;-70
2022/04/11 05:33:00;;;;;;;;;;;14.70;94.40;;;;;;5076299;28;19908;-69
2022/04/11 05:35:26;;;;;;;;;;;15.60;92.20;;;;;;5076023;28;19915;-69
2022/04/11 05:37:52;;;;;;;;;;;16.60;90.70;;;;;;5075329;28;20285;-67
2022/04/11 05:40:18;;;;;;;;;;;17.70;87.30;;;;;;5064217;28;20383;-67
2022/04/11 05:42:44;;;;;;;;;;;18.10;86.50;;;;;;5075970;28;19920;-67
2022/04/11 05:45:10;;;;;;;;;;;17.80;85.10;;;;;;5075605;28;20282;-69
2022/04/11 05:47:36;;;;;;;;;;;17.30;86.90;;;;;;5075666;28;19913;-66
2022/04/11 05:50:02;;;;;;;;;;;16.70;87.40;;;;;;5075429;28;19909;-68
2022/04/11 05:52:28;;;;;;;;;;;16.70;87.50;;;;;;5075688;28;19909;-68
2022/04/11 05:54:54;;;;;;;;;;;17.10;86.60;;;;;;5075210;28;19991;-68
2022/04/11 05:57:19;;;;;;;;;;;17.20;86.70;;;;;;5074544;28;19915;-73
2022/04/11 05:59:45;;;;;;;;;;;18.30;84.30;;;;;;5056611;28;19920;-69
2022/04/11 06:02:11;;;;;;;;;;;19.90;81.20;;;;;;5074264;28;19920;-73
2022/04/11 06:04:37;;;;;;;;;;;21.70;76.60;;;;;;5074546;28;19908;-69
2022/04/11 06:07:03;;;;;;;;;;;24.00;71.00;;;;;;5056274;28;19920;-71
2022/04/11 06:09:30;;;;;;;;;;;24.30;69.00;;;;;;5066914;28;19922;-70
2022/04/11 06:11:57;;;;;;;;;;;23.30;69.10;;;;;;5036320;28;19909;-69
2022/04/11 06:14:22;;;;;;;;;;;24.30;68.60;;;;;;5055487;28;19916;-66
2022/04/11 06:16:48;;;;;;;;;;;24.60;67.20;;;;;;5055177;28;19909;-69
2022/04/11 06:19:14;;;;;;;;;;;24.10;66.10;;;;;;5054764;28;20333;-69
2022/04/11 06:21:40;;;;;;;;;;;24.30;68.70;;;;;;5036563;28;19925;-70
2022/04/11 06:24:06;;;;;;;;;;;24.60;65.60;;;;;;5055074;28;20323;-68
2022/04/11 06:26:32;;;;;;;;;;;24.40;64.60;;;;;;5037140;28;19913;-68
2022/04/11 06:28:58;;;;;;;;;;;23.00;67.80;;;;;;5037069;28;20356;-69
2022/04/11 06:31:24;;;;;;;;;;;22.40;68.70;;;;;;5055582;28;19913;-69
2022/04/11 06:33:49;;;;;;;;;;;22.20;69.70;;;;;;5054937;28;19909;-69
2022/04/11 06:36:15;;;;;;;;;;;22.50;69.00;;;;;;5055140;28;19932;-70
2022/04/11 06:38:41;;;;;;;;;;;22.00;69.10;;;;;;5054902;28;20361;-69
2022/04/11 06:41:07;;;;;;;;;;;21.00;72.40;;;;;;5054365;28;19977;-70
2022/04/11 06:43:33;;;;;;;;;;;21.70;71.90;;;;;;5054754;28;19954;-69
2022/04/11 06:45:59;;;;;;;;;;;21.70;70.10;;;;;;5054656;28;19909;-70
2022/04/11 06:48:25;;;;;;;;;;;22.30;69.80;;;;;;5055117;28;19998;-69
2022/04/11 06:50:52;;;;;;;;;;;22.10;69.40;;;;;;5054491;28;19959;-70
2022/04/11 06:53:19;;;;;;;;;;;22.60;69.50;;;;;;5036222;28;19909;-69
2022/04/11 06:55:47;;;;;;;;;;;23.30;67.30;;;;;;5054733;28;19919;-70
2022/04/11 06:58:16;;;;;;;;;;;23.90;65.20;;;;;;5054538;28;20273;-70
2022/04/11 07:00:45;;;;;;;;;;;23.40;65.40;;;;;;5036728;28;19972;-69
2022/04/11 07:03:11;;;;;;;;;;;23.00;64.50;;;;;;5054166;28;20315;-69
2022/04/11 07:05:37;;;;;;;;;;;22.30;63.00;;;;;;5054250;28;19944;-69
2022/04/11 07:08:04;;;;;;;;;;;21.30;66.20;;;;;;5054796;28;19909;-70
2022/04/11 07:10:31;;;;;;;;;;;21.70;66.90;;;;;;5054109;28;19909;-69
2022/04/11 07:12:57;;;;;;;;;;;21.70;64.50;;;;;;5054065;28;19909;-70
2022/04/11 07:15:23;;;;;;;;;;;20.80;67.70;;;;;;5035781;28;20284;-71
2022/04/11 07:17:49;;;;;;;;;;;22.10;65.80;;;;;;5053956;28;19909;-70
2022/04/11 07:20:15;;;;;;;;;;;22.00;62.70;;;;;;5053571;28;19944;-69
2022/04/11 07:22:41;;;;;;;;;;;22.20;62.80;;;;;;5054061;28;19917;-69
2022/04/11 07:25:07;;;;;;;;;;;22.30;63.70;;;;;;5053600;28;19916;-69
2022/04/11 07:27:33;;;;;;;;;;;22.70;63.30;;;;;;5053533;28;20384;-69
2022/04/11 07:29:58;;;;;;;;;;;22.90;62.70;;;;;;5053708;28;19996;-69
2022/04/11 07:32:24;;;;;;;;;;;22.60;64.30;;;;;;5053340;28;20380;-70
2022/04/11 07:34:57;;;;;;;;;;;21.90;63.60;;;;;;5054097;28;19909;-70
2022/04/11 07:37:25;;;;;;;;;;;20.40;65.80;;;;;;5053920;28;19909;-70
2022/04/11 07:39:52;;;;;;;;;;;18.90;70.40;;;;;;5053475;28;19915;-69
2022/04/11 07:42:18;;;;;;;;;;;18.00;71.00;;;;;;5053277;28;20337;-70
2022/04/11 07:44:44;;;;;;;;;;;17.50;72.30;;;;;;5053314;28;19970;-69
2022/04/11 07:47:10;;;;;;;;;;;17.30;73.50;;;;;;5051979;28;19959;-69
2022/04/11 07:49:35;;;;;;;;;;;17.20;75.10;;;;;;5052608;28;19908;-70
2022/04/11 07:52:01;;;;;;;;;;;17.50;73.60;;;;;;5052334;28;20003;-69
2022/04/11 07:54:27;;;;;;;;;;;17.20;74.60;;;;;;5052598;28;19909;-70
2022/04/11 07:56:54;;;;;;;;;;;16.70;75.00;;;;;;5052533;28;19909;-70
2022/04/11 07:59:19;;;;;;;;;;;17.20;74.30;;;;;;5052168;28;20302;-70
2022/04/11 08:01:45;;;;;;;;;;;17.70;73.40;;;;;;5052317;28;20403;-68
2022/04/11 08:04:11;;;;;;;;;;;18.00;71.90;;;;;;5052195;28;20352;-70
2022/04/11 08:06:37;;;;;;;;;;;17.70;72.60;;;;;;5051855;28;19948;-70
2022/04/11 08:09:03;;;;;;;;;;;17.50;73.80;;;;;;5059833;28;19916;-69
2022/04/11 08:11:29;;;;;;;;;;;17.90;74.10;;;;;;5071990;28;19908;-69
2022/04/11 08:13:55;;;;;;;;;;;17.70;71.50;;;;;;5062655;28;19913;-69
2022/04/11 08:16:21;;;;;;;;;;;17.40;70.90;;;;;;5072354;28;19914;-69
2022/04/11 08:18:47;;;;;;;;;;;17.20;72.10;;;;;;5072786;28;19987;-68
2022/04/11 08:21:13;;;;;;;;;;;17.70;71.50;;;;;;5072388;28;19920;-69
2022/04/11 08:23:39;;;;;;;;;;;18.10;71.00;;;;;;5073239;28;20348;-69
2022/04/11 08:26:04;;;;;;;;;;;18.40;75.40;;;;;;5058041;28;19952;-69
2022/04/11 08:28:30;;;;;;;;;;;18.50;69.40;;;;;;5052763;28;20316;-69
2022/04/11 08:30:56;;;;;;;;;;;18.70;68.80;;;;;;5073231;28;20032;-69
2022/04/11 08:33:22;;;;;;;;;;;18.70;68.40;;;;;;5072954;28;19908;-67
2022/04/11 08:35:48;;;;;;;;;;;18.70;66.70;;;;;;5053162;28;19909;-68
2022/04/11 08:38:13;;;;;;;;;;;19.20;65.40;;;;;;5053208;28;19960;-69
2022/04/11 08:40:40;;;;;;;;;;;19.50;64.00;;;;;;5052873;28;19947;-67
2022/04/11 08:43:06;;;;;;;;;;;19.70;62.80;;;;;;5052607;28;20008;-67
2022/04/11 08:45:32;;;;;;;;;;;19.70;62.50;;;;;;5052835;28;19913;-68
2022/04/11 08:47:58;;;;;;;;;;;19.60;62.90;;;;;;5053086;28;20008;-68
2022/04/11 08:50:24;;;;;;;;;;;19.30;72.10;;;;;;5052284;28;20381;-70
2022/04/11 08:52:50;;;;;;;;;;;19.40;71.90;;;;;;5052491;28;19916;-69
2022/04/11 08:55:16;;;;;;;;;;;19.50;72.30;;;;;;5052646;28;19909;-69
2022/04/11 08:57:42;;;;;;;;;;;19.70;72.00;;;;;;5052216;28;19932;-68
2022/04/11 09:00:19;;;;;;;;;;;19.90;71.70;;;;;;5052216;28;20288;-70
2022/04/11 09:02:45;;;;;;;;;;;20.00;71.00;;;;;;5051941;28;19921;-69
2022/04/11 09:05:12;;;;;;;;;;;20.00;70.00;;;;;;5051879;28;19909;-68
2022/04/11 09:07:45;;;;;;;;;;;20.00;69.80;;;;;;5052675;28;19908;-69
2022/04/11 09:10:11;;;;;;;;;;;20.00;70.30;;;;;;5052165;28;20365;-69
2022/04/11 09:12:47;;;;;;;;;;;20.00;70.60;;;;;;5052284;28;19908;-69
2022/04/11 09:15:13;;;;;;;;;;;19.80;71.60;;;;;;5052322;28;19909;-68
2022/04/11 09:17:43;;;;;;;;;;;19.70;71.50;;;;;;5052053;28;19908;-69
2022/04/11 09:20:10;;;;;;;;;;;19.50;71.30;;;;;;5051939;28;19913;-69
2022/04/11 09:22:36;;;;;;;;;;;18.70;72.10;;;;;;5052050;28;19928;-68
2022/04/11 09:25:09;;;;;;;;;;;18.60;74.40;;;;;;5052166;28;19909;-68
2022/04/11 09:27:35;;;;;;;;;;;18.60;73.90;;;;;;5052042;28;20349;-70
2022/04/11 09:30:01;;;;;;;;;;;18.70;72.80;;;;;;5051930;28;19909;-69
2022/04/11 09:32:26;;;;;;;;;;;18.70;70.50;;;;;;5052057;28;20268;-68
2022/04/11 09:34:53;;;;;;;;;;;18.70;69.90;;;;;;5051796;28;19908;-69
2022/04/11 09:37:20;;;;;;;;;;;18.70;69.60;;;;;;5051622;28;19909;-68
2022/04/11 09:39:53;;;;;;;;;;;18.80;66.60;;;;;;5054712;28;19912;-68
2022/04/11 09:42:29;;;;;;;;;;;18.60;66.30;;;;;;5061786;28;19917;-69
2022/04/11 09:44:58;;;;;;;;;;;18.50;67.40;;;;;;5055645;28;19913;-68
2022/04/11 09:47:25;;;;;;;;;;;18.60;66.10;;;;;;5055280;28;19909;-67
2022/04/11 09:49:51;;;;;;;;;;;18.50;66.70;;;;;;5055000;28;20007;-68
2022/04/11 09:52:16;;;;;;;;;;;18.40;66.60;;;;;;5055034;28;20398;-68
2022/04/11 09:54:44;;;;;;;;;;;18.20;66.60;;;;;;5055538;28;19959;-69
2022/04/11 09:57:14;;;;;;;;;;;18.30;68.00;;;;;;5055085;28;20043;-69
2022/04/11 09:59:40;;;;;;;;;;;18.20;68.10;;;;;;5054986;28;20242;-70
2022/04/11 10:02:06;;;;;;;;;;;18.20;68.20;;;;;;5054945;28;19916;-70
2022/04/11 10:04:33;;;;;;;;;;;18.00;69.50;;;;;;5054853;28;19909;-65
2022/04/11 10:06:59;;;;;;;;;;;17.60;72.30;;;;;;5054942;28;19909;-70
2022/04/11 10:09:25;;;;;;;;;;;17.30;74.10;;;;;;5054833;28;19920;-70
2022/04/11 10:11:52;;;;;;;;;;;17.40;76.30;;;;;;5054649;28;19966;-69
2022/04/11 10:14:27;;;;;;;;;;;17.50;75.30;;;;;;5054897;28;19916;-70
2022/04/11 10:16:55;;;;;;;;;;;17.50;76.00;;;;;;5055212;28;19909;-68
2022/04/11 10:19:22;;;;;;;;;;;17.30;76.30;;;;;;5054919;28;19916;-69
2022/04/11 10:21:49;;;;;;;;;;;17.20;77.20;;;;;;5054603;28;19928;-68
2022/04/11 10:24:34;;;;;;;;;;;17.30;77.50;;;;;;5054817;28;19978;-70
2022/04/11 10:27:18;;;;;;;;;;;17.60;77.20;;;;;;5037190;28;20006;-68
2022/04/11 10:29:45;;;;;;;;;;;17.70;78.00;;;;;;5054981;28;20387;-68
2022/04/11 10:32:13;;;;;;;;;;;17.60;78.80;;;;;;5054539;28;20353;-68
2022/04/11 10:34:46;;;;;;;;;;;17.80;79.10;;;;;;5054285;28;19909;-69
2022/04/11 10:37:12;;;;;;;;;;;17.90;79.50;;;;;;5054558;28;19948;-69
2022/04/11 10:39:39;;;;;;;;;;;18.10;79.20;;;;;;5054981;28;20417;-69
2022/04/11 10:42:06;;;;;;;;;;;18.30;79.30;;;;;;5054339;28;20014;-69
2022/04/11 10:44:32;;;;;;;;;;;18.30;81.40;;;;;;5054179;28;19996;-69
2022/04/11 10:47:10;;;;;;;;;;;18.20;79.30;;;;;;5054368;28;19915;-68
2022/04/11 10:49:45;;;;;;;;;;;17.70;80.30;;;;;;5036088;28;19916;-70
2022/04/11 10:52:33;;;;;;;;;;;17.70;80.50;;;;;;5054155;28;19908;-69
2022/04/11 10:55:08;;;;;;;;;;;17.90;81.40;;;;;;5053725;28;19916;-66
2022/04/11 10:57:37;;;;;;;;;;;17.40;82.00;;;;;;5054577;28;20382;-69
2022/04/11 11:00:06;;;;;;;;;;;17.60;81.70;;;;;;5036233;28;20280;-70
2022/04/11 11:02:57;;;;;;;;;;;17.70;81.60;;;;;;5053914;28;19924;-69
2022/04/11 11:05:27;;;;;;;;;;;18.00;80.20;;;;;;5054318;28;20372;-68
2022/04/11 11:08:11;;;;;;;;;;;18.20;78.50;;;;;;5053969;28;19909;-70
2022/04/11 11:10:41;;;;;;;;;;;18.30;76.40;;;;;;5053868;28;19936;-69
2022/04/11 11:13:32;;;;;;;;;;;18.40;77.70;;;;;;5053831;28;19909;-69
2022/04/11 11:15:59;;;;;;;;;;;18.30;75.70;;;;;;5032851;28;19909;-69
2022/04/11 11:18:26;;;;;;;;;;;18.40;76.60;;;;;;5054229;28;19920;-69
2022/04/11 11:20:53;;;;;;;;;;;18.30;75.30;;;;;;5053667;28;20441;-70
2022/04/11 11:23:26;;;;;;;;;;;18.30;78.50;;;;;;5035862;28;19917;-69
2022/04/11 11:25:52;;;;;;;;;;;18.30;79.60;;;;;;5053968;28;19916;-69
2022/04/11 11:28:19;;;;;;;;;;;18.20;78.70;;;;;;5053647;28;20003;-70
2022/04/11 11:30:45;;;;;;;;;;;18.20;75.60;;;;;;5053820;28;20341;-70
2022/04/11 11:33:15;;;;;;;;;;;18.00;74.90;;;;;;5053613;28;19915;-71
2022/04/11 11:35:51;;;;;;;;;;;18.00;74.50;;;;;;5053972;28;19932;-70
2022/04/11 11:38:21;;;;;;;;;;;17.90;74.90;;;;;;5053783;28;19909;-69
2022/04/11 11:40:51;;;;;;;;;;;18.00;74.70;;;;;;5053427;28;19944;-70
2022/04/11 11:43:17;;;;;;;;;;;18.20;73.60;;;;;;5053398;28;19921;-70
2022/04/11 11:45:44;;;;;;;;;;;18.40;75.60;;;;;;5053177;28;19916;-70
2022/04/11 11:48:22;;;;;;;;;;;18.70;75.50;;;;;;5052644;28;19909;-70
2022/04/11 11:50:48;;;;;;;;;;;18.50;73.10;;;;;;5052762;28;19915;-69
2022/04/11 11:53:14;;;;;;;;;;;18.70;70.80;;;;;;5035329;28;19916;-68
2022/04/11 11:55:55;;;;;;;;;;;18.90;70.90;;;;;;5052990;28;19961;-67
2022/04/11 11:58:21;;;;;;;;;;;18.90;72.40;;;;;;5053178;28;19983;-67
2022/04/11 12:00:49;;;;;;;;;;;19.10;71.60;;;;;;5052618;28;19916;-68
2022/04/11 12:06:01;;;;;;;;;;;19.20;69.10;;;;;;5071678;28;19920;-67
2022/04/11 12:08:30;;;;;;;;;;;19.10;70.10;;;;;;5054281;28;19909;-68
2022/04/11 12:11:00;;;;;;;;;;;18.80;68.80;;;;;;5072877;28;20040;-69
2022/04/11 12:13:27;;;;;;;;;;;19.00;67.90;;;;;;5073401;28;19912;-68
2022/04/11 12:15:53;;;;;;;;;;;18.90;69.10;;;;;;5073056;28;19912;-69
2022/04/11 12:18:19;;;;;;;;;;;18.50;68.10;;;;;;5073318;28;19916;-69
2022/04/11 12:20:45;;;;;;;;;;;18.40;70.10;;;;;;5073202;28;19999;-68
2022/04/11 12:23:12;;;;;;;;;;;18.50;71.60;;;;;;5073305;28;20015;-69
2022/04/11 12:25:42;;;;;;;;;;;18.70;71.20;;;;;;5073247;28;20521;-69
2022/04/11 12:28:09;;;;;;;;;;;18.70;73.40;;;;;;5073015;28;19909;-69
2022/04/11 12:30:35;;;;;;;;;;;18.90;73.40;;;;;;5073537;28;19909;-69
2022/04/11 12:33:01;;;;;;;;;;;18.80;75.20;;;;;;5072782;28;20312;-69
2022/04/11 12:35:27;;;;;;;;;;;18.90;74.90;;;;;;5072796;28;20430;-68
2022/04/11 12:37:56;;;;;;;;;;;18.90;73.40;;;;;;5072723;28;19952;-69
2022/04/11 12:40:39;;;;;;;;;;;19.20;74.70;;;;;;5054961;28;19909;-69
2022/04/11 12:43:05;;;;;;;;;;;19.20;75.80;;;;;;5073338;28;19932;-69
2022/04/11 12:45:31;;;;;;;;;;;19.20;75.70;;;;;;5054986;28;19908;-69
2022/04/11 12:48:05;;;;;;;;;;;19.40;74.80;;;;;;5072953;28;19908;-69
2022/04/11 12:50:32;;;;;;;;;;;19.30;74.30;;;;;;5072937;28;19975;-70
2022/04/11 12:52:58;;;;;;;;;;;19.20;75.90;;;;;;5055022;28;19954;-69
2022/04/11 12:55:25;;;;;;;;;;;19.10;76.20;;;;;;5072752;28;20395;-67
2022/04/11 12:58:01;;;;;;;;;;;18.90;76.80;;;;;;5072877;28;19915;-69
2022/04/11 13:00:27;;;;;;;;;;;18.90;76.30;;;;;;5054719;28;19908;-69
2022/04/11 13:02:54;;;;;;;;;;;19.10;76.70;;;;;;5072075;28;19920;-68
2022/04/11 13:05:20;;;;;;;;;;;18.90;72.90;;;;;;5073108;28;19909;-70
2022/04/11 13:07:47;;;;;;;;;;;18.70;73.70;;;;;;5072921;28;19935;-67
2022/04/11 13:10:13;;;;;;;;;;;18.30;74.10;;;;;;5072738;28;20281;-69
2022/04/11 13:12:39;;;;;;;;;;;18.40;76.10;;;;;;5072455;28;19909;-69
2022/04/11 13:15:06;;;;;;;;;;;18.50;75.70;;;;;;5073656;28;19908;-70
2022/04/11 13:20:18;;;;;;;;;;;18.80;75.20;;;;;;5068922;28;20009;-69
2022/04/11 13:22:44;;;;;;;;;;;18.70;76.30;;;;;;5076539;28;19921;-69
2022/04/11 13:25:09;;;;;;;;;;;18.80;78.00;;;;;;5077239;28;20018;-70
2022/04/11 13:27:35;;;;;;;;;;;19.00;78.60;;;;;;5071225;28;19912;-68
2022/04/11 13:30:01;;;;;;;;;;;19.10;77.60;;;;;;5057314;28;19913;-69
2022/04/11 13:32:27;;;;;;;;;;;19.00;77.80;;;;;;5060853;28;21019;-68
2022/04/11 13:34:53;;;;;;;;;;;18.90;75.50;;;;;;5076151;28;19917;-69
2022/04/11 13:37:18;;;;;;;;;;;18.60;77.20;;;;;;5076068;28;19954;-69
2022/04/11 13:39:47;;;;;;;;;;;18.40;77.10;;;;;;5075962;28;19927;-64
2022/04/11 13:42:13;;;;;;;;;;;18.50;77.20;;;;;;5075920;28;19916;-69
2022/04/11 13:44:40;;;;;;;;;;;18.50;76.70;;;;;;5075870;28;19934;-66
2022/04/11 13:47:06;;;;;;;;;;;18.60;75.70;;;;;;5075933;28;20395;-68
2022/04/11 13:49:32;;;;;;;;;;;18.80;76.50;;;;;;5075114;28;19952;-68
2022/04/11 13:51:58;;;;;;;;;;;18.70;75.50;;;;;;5075117;28;19919;-69
2022/04/11 13:54:24;;;;;;;;;;;18.90;75.60;;;;;;5075797;28;20275;-68
2022/04/11 13:56:50;;;;;;;;;;;18.90;76.30;;;;;;5075346;28;20343;-70
2022/04/11 13:59:17;;;;;;;;;;;19.00;76.40;;;;;;5075591;28;20003;-71
2022/04/11 14:01:44;;;;;;;;;;;19.00;75.60;;;;;;5075247;28;19923;-69
2022/04/11 14:04:10;;;;;;;;;;;18.60;76.30;;;;;;5075278;28;19912;-69
2022/04/11 14:06:37;;;;;;;;;;;18.50;76.20;;;;;;5075006;28;19965;-68
2022/04/11 14:09:04;;;;;;;;;;;18.50;74.70;;;;;;5074950;28;20368;-69
2022/04/11 14:11:30;;;;;;;;;;;18.70;74.30;;;;;;5074851;28;19908;-68
2022/04/11 14:13:56;;;;;;;;;;;18.70;75.40;;;;;;5074870;28;19921;-67
2022/04/11 14:16:22;;;;;;;;;;;18.40;75.70;;;;;;5075184;28;19915;-69
2022/04/11 14:18:48;;;;;;;;;;;18.10;75.90;;;;;;5074731;28;19986;-69
2022/04/11 14:21:14;;;;;;;;;;;18.30;75.00;;;;;;5074518;28;19921;-69
2022/04/11 14:23:40;;;;;;;;;;;18.30;75.90;;;;;;5074395;28;19962;-68
2022/04/11 14:26:06;;;;;;;;;;;18.30;76.50;;;;;;5074242;28;19919;-68